Time;durP1;ratioP1;P1;durP2;ratioP2;P2;SDS_P1;SDS_P2;PMS_P1;PMS_P2;Temp;Humidity;BMP_temperature;BMP_pressure;BME280_temperature;BME280_humidity;BME280_pressure;Samples;Min_cycle;Max_cycle;Signal;HPM_P1;HPM_P2
2022/07/09 00:01:58;;;;;;;0.65;0.65;;;17.90;73.50;;;;;;6310352;22;20046;-77
2022/07/09 00:04:24;;;;;;;1.98;0.80;;;17.80;73.60;;;;;;6306859;22;20054;-77
2022/07/09 00:06:50;;;;;;;0.95;0.60;;;17.70;73.60;;;;;;6307106;22;20003;-77
2022/07/09 00:09:15;;;;;;;1.90;0.70;;;17.70;73.80;;;;;;6306775;22;20088;-77
2022/07/09 00:11:41;;;;;;;0.60;0.60;;;17.70;73.90;;;;;;6308061;22;20015;-76
2022/07/09 00:14:07;;;;;;;1.20;0.90;;;17.70;73.90;;;;;;6307084;22;20372;-77
2022/07/09 00:16:32;;;;;;;0.80;0.77;;;17.60;73.90;;;;;;6314631;22;20023;-76
2022/07/09 00:18:58;;;;;;;0.80;0.63;;;17.60;74.00;;;;;;6294836;22;20011;-77
2022/07/09 00:21:24;;;;;;;1.27;0.90;;;17.60;74.00;;;;;;6297637;22;20015;-76
2022/07/09 00:23:49;;;;;;;0.73;0.68;;;17.60;74.10;;;;;;6326703;22;20007;-76
2022/07/09 00:26:15;;;;;;;1.00;0.70;;;17.60;74.10;;;;;;6328140;22;20379;-76
2022/07/09 00:28:41;;;;;;;0.95;0.70;;;17.50;74.20;;;;;;6301181;22;20058;-76
2022/07/09 00:31:07;;;;;;;0.77;0.60;;;17.50;74.30;;;;;;6327711;22;20003;-76
2022/07/09 00:33:33;;;;;;;0.60;0.52;;;17.50;74.30;;;;;;6327674;22;20003;-76
2022/07/09 00:35:59;;;;;;;1.38;0.70;;;17.40;74.30;;;;;;6299438;22;20094;-76
2022/07/09 00:38:25;;;;;;;1.40;1.08;;;17.40;74.40;;;;;;6298996;22;20031;-76
2022/07/09 00:40:51;;;;;;;0.70;0.70;;;17.40;74.50;;;;;;6328616;22;20014;-76
2022/07/09 00:43:18;;;;;;;0.77;0.70;;;17.40;74.60;;;;;;6303197;22;20003;-76
2022/07/09 00:45:45;;;;;;;0.63;0.50;;;17.30;74.60;;;;;;6330360;22;20026;-76
2022/07/09 00:48:10;;;;;;;1.15;0.70;;;17.30;74.70;;;;;;6301228;22;19999;-76
2022/07/09 00:50:37;;;;;;;1.27;0.88;;;17.30;74.80;;;;;;6299824;22;20003;-76
2022/07/09 00:53:02;;;;;;;0.55;0.55;;;17.30;74.80;;;;;;6327081;22;20003;-76
2022/07/09 00:55:28;;;;;;;0.52;0.52;;;17.30;74.80;;;;;;6326443;22;20018;-76
2022/07/09 00:57:55;;;;;;;0.70;0.70;;;17.30;75.00;;;;;;6298568;22;20004;-77
2022/07/09 01:00:20;;;;;;;0.70;0.70;;;17.30;75.10;;;;;;6301074;22;20029;-77
2022/07/09 01:02:49;;;;;;;1.38;0.90;;;17.30;75.10;;;;;;6328754;22;20561;-77
2022/07/09 01:05:14;;;;;;;0.68;0.68;;;17.20;75.10;;;;;;6328658;22;20007;-77
2022/07/09 01:07:41;;;;;;;0.70;0.40;;;17.20;75.10;;;;;;6296937;22;20019;-77
2022/07/09 01:10:07;;;;;;;1.02;0.60;;;17.20;75.10;;;;;;6327969;22;20003;-77
2022/07/09 01:12:33;;;;;;;0.60;0.60;;;17.20;75.20;;;;;;6327249;22;20011;-77
2022/07/09 01:14:58;;;;;;;0.70;0.55;;;17.10;75.20;;;;;;6297755;22;20007;-77
2022/07/09 01:17:24;;;;;;;0.70;0.70;;;17.10;75.30;;;;;;6326423;22;20011;-77
2022/07/09 01:19:50;;;;;;;0.80;0.70;;;17.20;75.40;;;;;;6297728;22;20006;-78
2022/07/09 01:22:16;;;;;;;0.50;0.50;;;17.10;75.50;;;;;;6297756;22;20018;-77
2022/07/09 01:24:42;;;;;;;0.60;0.60;;;17.10;75.60;;;;;;6325899;22;20100;-77
2022/07/09 01:27:08;;;;;;;0.47;0.47;;;17.00;75.60;;;;;;6325238;22;20036;-77
2022/07/09 01:29:34;;;;;;;0.88;0.60;;;17.00;75.60;;;;;;6296011;22;20003;-77
2022/07/09 01:32:00;;;;;;;1.00;0.63;;;17.00;75.70;;;;;;6298585;22;20034;-78
2022/07/09 01:34:25;;;;;;;0.70;0.70;;;16.90;75.70;;;;;;6299294;22;20007;-78
2022/07/09 01:36:51;;;;;;;0.60;0.60;;;17.00;75.80;;;;;;6327801;22;20004;-78
2022/07/09 01:39:17;;;;;;;0.80;0.80;;;16.80;75.90;;;;;;6326269;22;20007;-77
2022/07/09 01:41:42;;;;;;;0.70;0.70;;;16.80;76.00;;;;;;6294548;22;20014;-77
2022/07/09 01:44:08;;;;;;;1.05;0.80;;;16.80;76.10;;;;;;6324690;22;20007;-78
2022/07/09 01:46:35;;;;;;;0.80;0.60;;;16.70;76.10;;;;;;6294691;22;20042;-78
2022/07/09 01:49:01;;;;;;;0.68;0.68;;;16.70;76.30;;;;;;6325963;22;20015;-77
2022/07/09 01:51:26;;;;;;;1.35;0.70;;;16.60;76.20;;;;;;6296569;22;20027;-77
2022/07/09 01:53:52;;;;;;;0.57;0.57;;;16.60;76.30;;;;;;6325533;22;19996;-77
2022/07/09 01:56:18;;;;;;;0.90;0.80;;;16.60;76.40;;;;;;6326069;22;20010;-78
2022/07/09 01:58:44;;;;;;;0.80;0.80;;;16.50;76.50;;;;;;6297515;22;20027;-77
2022/07/09 02:01:10;;;;;;;0.57;0.57;;;16.60;76.60;;;;;;6327095;22;20003;-78
2022/07/09 02:03:35;;;;;;;0.70;0.70;;;16.50;76.60;;;;;;6327955;22;19988;-77
2022/07/09 02:06:01;;;;;;;0.68;0.68;;;16.50;76.70;;;;;;6328365;22;20011;-77
2022/07/09 02:08:27;;;;;;;0.88;0.80;;;16.60;76.80;;;;;;6298828;22;20007;-78
2022/07/09 02:10:54;;;;;;;0.68;0.68;;;16.50;76.80;;;;;;6325596;22;20008;-77
2022/07/09 02:13:20;;;;;;;0.98;0.80;;;16.40;76.70;;;;;;6283031;22;20046;-77
2022/07/09 02:15:46;;;;;;;0.70;0.70;;;16.40;76.80;;;;;;6335266;22;19995;-77
2022/07/09 02:18:12;;;;;;;0.73;0.70;;;16.40;76.90;;;;;;6334533;22;19991;-77
2022/07/09 02:20:38;;;;;;;0.70;0.70;;;16.30;76.90;;;;;;6333538;22;20014;-77
2022/07/09 02:23:04;;;;;;;0.80;0.80;;;16.30;77.10;;;;;;6332665;22;20011;-78
2022/07/09 02:25:29;;;;;;;0.70;0.70;;;16.30;77.20;;;;;;6304451;22;20411;-77
2022/07/09 02:27:55;;;;;;;0.70;0.70;;;16.20;77.10;;;;;;6303848;22;20026;-77
2022/07/09 02:30:21;;;;;;;0.73;0.73;;;16.20;77.20;;;;;;6331559;22;19987;-77
2022/07/09 02:32:47;;;;;;;0.80;0.80;;;16.20;77.30;;;;;;6303662;22;20014;-78
2022/07/09 02:35:13;;;;;;;0.60;0.60;;;16.20;77.30;;;;;;6301484;22;20008;-77
2022/07/09 02:37:39;;;;;;;1.02;0.77;;;16.10;77.40;;;;;;6329680;22;20431;-78
2022/07/09 02:40:05;;;;;;;0.93;0.80;;;16.10;77.40;;;;;;6328335;22;20010;-78
2022/07/09 02:42:32;;;;;;;0.95;0.90;;;16.10;77.50;;;;;;6327468;22;20065;-78
2022/07/09 02:44:57;;;;;;;1.33;0.70;;;16.00;77.40;;;;;;6274923;22;19999;-78
2022/07/09 02:47:23;;;;;;;0.77;0.68;;;16.10;78.30;;;;;;6327620;22;20458;-77
2022/07/09 02:49:49;;;;;;;1.10;1.00;;;16.00;77.50;;;;;;6296456;22;20040;-78
2022/07/09 02:52:16;;;;;;;1.83;0.65;;;16.00;77.60;;;;;;6325969;22;20003;-78
2022/07/09 02:54:41;;;;;;;1.02;0.80;;;16.00;77.70;;;;;;6296368;22;20008;-78
2022/07/09 02:57:08;;;;;;;0.80;0.65;;;16.00;77.70;;;;;;6294892;22;20008;-78
2022/07/09 02:59:33;;;;;;;0.70;0.70;;;16.00;77.70;;;;;;6326474;22;20046;-77
2022/07/09 03:01:59;;;;;;;0.60;0.50;;;15.90;77.70;;;;;;6324606;22;20011;-78
2022/07/09 03:04:25;;;;;;;0.60;0.60;;;15.90;77.70;;;;;;6298470;22;20018;-78
2022/07/09 03:06:51;;;;;;;0.50;0.50;;;15.90;77.80;;;;;;6273631;22;20004;-78
2022/07/09 03:09:16;;;;;;;0.90;0.68;;;15.90;77.80;;;;;;6324075;22;20021;-77
2022/07/09 03:11:42;;;;;;;0.68;0.68;;;15.90;77.90;;;;;;6324667;22;20011;-78
2022/07/09 03:14:08;;;;;;;0.60;0.60;;;15.90;77.90;;;;;;6325314;22;20015;-78
2022/07/09 03:16:34;;;;;;;0.75;0.75;;;15.90;78.00;;;;;;6295690;22;20086;-78
2022/07/09 03:18:59;;;;;;;0.70;0.70;;;15.90;77.90;;;;;;6294100;22;20011;-79
2022/07/09 03:21:25;;;;;;;0.70;0.60;;;15.90;78.00;;;;;;6322452;22;20029;-78
2022/07/09 03:23:51;;;;;;;0.63;0.60;;;16.00;78.00;;;;;;6292064;22;20014;-78
2022/07/09 03:26:16;;;;;;;0.88;0.80;;;16.00;78.00;;;;;;6293971;22;20018;-78
2022/07/09 03:28:42;;;;;;;0.60;0.60;;;16.00;77.90;;;;;;6319381;22;20554;-78
2022/07/09 03:31:08;;;;;;;0.80;0.70;;;16.00;77.90;;;;;;6288989;22;20030;-78
2022/07/09 03:33:33;;;;;;;1.02;0.90;;;16.00;77.90;;;;;;6292395;22;19999;-78
2022/07/09 03:35:59;;;;;;;0.60;0.60;;;16.00;77.90;;;;;;6331111;22;20035;-78
2022/07/09 03:38:26;;;;;;;0.85;0.68;;;16.10;77.90;;;;;;6330702;22;20000;-78
2022/07/09 03:40:52;;;;;;;0.80;0.63;;;16.10;77.90;;;;;;6302990;22;20023;-78
2022/07/09 03:43:19;;;;;;;0.65;0.60;;;16.10;77.90;;;;;;6331352;22;19990;-78
2022/07/09 03:45:45;;;;;;;0.77;0.77;;;16.00;77.90;;;;;;6306176;22;19993;-78
2022/07/09 03:48:10;;;;;;;0.60;0.60;;;16.10;78.00;;;;;;6305342;22;20007;-78
2022/07/09 03:50:36;;;;;;;0.82;0.82;;;16.10;78.00;;;;;;6303792;22;20007;-78
2022/07/09 03:53:02;;;;;;;0.65;0.65;;;16.20;78.00;;;;;;6302535;22;20026;-78
2022/07/09 03:55:29;;;;;;;0.98;0.60;;;16.10;77.90;;;;;;6329637;22;20004;-78
2022/07/09 03:57:54;;;;;;;0.43;0.43;;;16.30;78.10;;;;;;6329356;22;20011;-78
2022/07/09 04:00:20;;;;;;;0.55;0.55;;;16.10;78.00;;;;;;6327495;22;20015;-78
2022/07/09 04:02:47;;;;;;;0.55;0.50;;;16.20;78.00;;;;;;6328161;22;20037;-77
2022/07/09 04:05:12;;;;;;;1.20;1.00;;;16.20;78.00;;;;;;6289120;22;20016;-77
2022/07/09 04:07:39;;;;;;;0.65;0.60;;;16.10;78.00;;;;;;6292049;22;20051;-77
2022/07/09 04:10:06;;;;;;;0.73;0.70;;;16.30;78.10;;;;;;6270157;22;20442;-77
2022/07/09 04:12:31;;;;;;;0.77;0.73;;;16.20;78.00;;;;;;6274877;22;20011;-78
2022/07/09 04:14:57;;;;;;;0.77;0.77;;;16.30;78.00;;;;;;6272126;22;20038;-78
2022/07/09 04:17:23;;;;;;;0.73;0.73;;;16.30;78.00;;;;;;6271028;22;20062;-78
2022/07/09 04:19:48;;;;;;;0.98;0.80;;;16.40;78.10;;;;;;6275390;22;20012;-78
2022/07/09 04:22:14;;;;;;;0.65;0.65;;;16.30;78.00;;;;;;6283942;22;20390;-78
2022/07/09 04:24:40;;;;;;;0.80;0.70;;;16.40;78.10;;;;;;6284868;22;19999;-78
2022/07/09 04:27:06;;;;;;;0.70;0.70;;;16.50;78.10;;;;;;6279924;22;20034;-78
2022/07/09 04:29:32;;;;;;;0.70;0.65;;;16.50;78.10;;;;;;6277536;22;20043;-78
2022/07/09 04:31:57;;;;;;;0.63;0.60;;;16.50;78.10;;;;;;6281380;22;19998;-78
2022/07/09 04:34:23;;;;;;;0.90;0.70;;;16.40;78.10;;;;;;6282268;22;20020;-78
2022/07/09 04:36:49;;;;;;;1.00;0.90;;;16.50;78.20;;;;;;6272208;22;20079;-78
2022/07/09 04:39:15;;;;;;;1.25;0.88;;;16.40;78.20;;;;;;6326692;22;20057;-78
2022/07/09 04:41:41;;;;;;;0.95;0.80;;;16.50;78.30;;;;;;6300587;22;20055;-78
2022/07/09 04:44:07;;;;;;;0.80;0.80;;;16.50;78.40;;;;;;6302058;22;20014;-78
2022/07/09 04:46:33;;;;;;;0.88;0.65;;;16.50;78.40;;;;;;6300655;22;20011;-78
2022/07/09 04:48:58;;;;;;;1.50;0.90;;;16.50;78.40;;;;;;6324630;22;20011;-78
2022/07/09 04:51:24;;;;;;;1.17;0.90;;;16.50;78.40;;;;;;6294374;22;20003;-78
2022/07/09 04:53:50;;;;;;;0.80;0.80;;;16.50;78.50;;;;;;6318888;22;20007;-78
2022/07/09 04:56:16;;;;;;;0.75;0.70;;;16.50;78.50;;;;;;6283093;22;20003;-78
2022/07/09 04:58:51;;;;;;;1.20;0.95;;;16.60;78.50;;;;;;6287876;22;20011;-78
2022/07/09 05:01:19;;;;;;;1.55;1.20;;;16.60;78.50;;;;;;6313655;22;20014;-78
2022/07/09 05:03:46;;;;;;;1.35;0.95;;;16.60;78.50;;;;;;6313784;22;20007;-78
2022/07/09 05:06:15;;;;;;;1.00;0.90;;;16.60;78.60;;;;;;6254951;22;20027;-78
2022/07/09 05:08:41;;;;;;;1.00;0.82;;;16.60;78.70;;;;;;6255130;22;20019;-78
2022/07/09 05:11:06;;;;;;;2.03;1.00;;;16.70;78.60;;;;;;6281506;22;20008;-78
2022/07/09 05:13:32;;;;;;;1.08;0.98;;;16.90;78.50;;;;;;6239647;22;20031;-78
2022/07/09 05:15:58;;;;;;;0.90;0.80;;;16.90;78.40;;;;;;6239211;22;20040;-78
2022/07/09 05:18:26;;;;;;;1.17;0.90;;;16.90;78.10;;;;;;6265606;22;20080;-78
2022/07/09 05:20:52;;;;;;;1.42;1.10;;;17.00;78.00;;;;;;6251805;22;20019;-78
2022/07/09 05:23:17;;;;;;;1.20;1.00;;;17.00;78.00;;;;;;6267782;22;20023;-79
2022/07/09 05:25:43;;;;;;;1.02;0.93;;;17.10;78.10;;;;;;6251272;22;20091;-78
2022/07/09 05:28:09;;;;;;;1.30;1.20;;;17.10;78.00;;;;;;6253732;22;20008;-79
2022/07/09 05:30:40;;;;;;;1.10;1.00;;;17.10;78.00;;;;;;6252675;22;20015;-78
2022/07/09 05:33:06;;;;;;;1.10;0.95;;;17.20;78.10;;;;;;6252244;22;20015;-79
2022/07/09 05:35:32;;;;;;;0.80;0.80;;;17.20;78.00;;;;;;6253818;22;20008;-79
2022/07/09 05:37:58;;;;;;;0.95;0.85;;;17.30;78.00;;;;;;6316106;22;20015;-79
2022/07/09 05:40:24;;;;;;;1.55;1.02;;;17.30;78.00;;;;;;6310440;22;20015;-78
2022/07/09 05:42:49;;;;;;;1.08;0.90;;;17.30;78.60;;;;;;6282307;22;20014;-79
2022/07/09 05:45:15;;;;;;;1.10;0.80;;;17.50;78.00;;;;;;6280854;22;20453;-79
2022/07/09 05:47:41;;;;;;;2.45;1.20;;;17.60;77.90;;;;;;6282991;22;20090;-79
2022/07/09 05:50:07;;;;;;;1.80;1.20;;;17.60;77.80;;;;;;6310733;22;20339;-78
2022/07/09 05:52:33;;;;;;;1.40;1.08;;;17.70;77.80;;;;;;6283539;22;20435;-78
2022/07/09 05:54:59;;;;;;;1.48;0.98;;;17.70;77.70;;;;;;6282114;22;20014;-79
2022/07/09 05:57:25;;;;;;;0.98;0.88;;;17.80;77.70;;;;;;6279782;22;20004;-78
2022/07/09 05:59:51;;;;;;;0.80;0.80;;;17.90;77.70;;;;;;6281749;22;20011;-78
2022/07/09 06:02:18;;;;;;;1.52;1.10;;;17.90;77.50;;;;;;6282330;22;20011;-77
2022/07/09 06:04:44;;;;;;;1.13;0.80;;;18.00;77.50;;;;;;6283601;22;20057;-78
2022/07/09 06:07:10;;;;;;;1.33;1.00;;;18.10;77.50;;;;;;6282491;22;20361;-78
2022/07/09 06:09:36;;;;;;;1.55;1.30;;;18.10;77.40;;;;;;6282470;22;20340;-78
2022/07/09 06:12:02;;;;;;;0.98;0.90;;;18.20;77.40;;;;;;6255979;22;20328;-79
2022/07/09 06:14:28;;;;;;;1.08;0.98;;;18.20;77.40;;;;;;6254369;22;20091;-79
2022/07/09 06:16:55;;;;;;;1.70;1.30;;;18.30;77.40;;;;;;6278760;22;20004;-78
2022/07/09 06:19:21;;;;;;;2.40;1.45;;;18.30;77.40;;;;;;6309459;22;20011;-78
2022/07/09 06:21:47;;;;;;;1.10;1.00;;;18.50;77.40;;;;;;6309725;22;20068;-78
2022/07/09 06:24:13;;;;;;;0.80;0.80;;;18.50;77.30;;;;;;6280137;22;20436;-79
2022/07/09 06:26:38;;;;;;;1.17;0.93;;;18.60;77.20;;;;;;6268373;22;20011;-78
2022/07/09 06:29:04;;;;;;;1.67;1.10;;;18.60;77.30;;;;;;6293995;22;20071;-78
2022/07/09 06:31:30;;;;;;;2.00;1.20;;;18.60;77.40;;;;;;6323829;22;20010;-78
2022/07/09 06:33:58;;;;;;;1.45;1.02;;;18.50;77.40;;;;;;6294301;22;20000;-78
2022/07/09 06:36:24;;;;;;;0.95;0.88;;;18.60;77.60;;;;;;6325843;22;20061;-78
2022/07/09 06:41:32;;;;;;;1.55;1.30;;;18.60;77.60;;;;;;6324886;22;20031;-78
2022/07/09 06:43:58;;;;;;;1.50;1.20;;;18.70;77.70;;;;;;6327381;22;20008;-78
2022/07/09 06:46:24;;;;;;;1.10;1.00;;;18.60;77.70;;;;;;6297267;22;20037;-78
2022/07/09 06:48:49;;;;;;;1.90;1.33;;;18.80;77.90;;;;;;6297627;22;20018;-78
2022/07/09 06:51:15;;;;;;;1.77;1.38;;;18.90;77.50;;;;;;6326387;22;20003;-78
2022/07/09 06:53:41;;;;;;;1.88;1.10;;;19.00;77.40;;;;;;6324113;22;20010;-78
2022/07/09 06:56:07;;;;;;;2.65;1.52;;;19.20;77.30;;;;;;6300767;22;20085;-78
2022/07/09 06:58:33;;;;;;;1.05;0.95;;;19.30;77.00;;;;;;6323999;22;20037;-78
2022/07/09 07:00:58;;;;;;;1.13;0.95;;;19.40;76.80;;;;;;6323070;22;20011;-78
2022/07/09 07:03:24;;;;;;;1.20;0.80;;;19.40;76.80;;;;;;6323447;22;20007;-79
2022/07/09 07:05:50;;;;;;;0.70;0.70;;;19.40;76.80;;;;;;6321858;22;20003;-78
2022/07/09 07:08:17;;;;;;;1.13;0.80;;;19.50;77.10;;;;;;6322083;22;20323;-78
2022/07/09 07:10:43;;;;;;;0.80;0.80;;;19.50;77.10;;;;;;6321388;22;20010;-78
2022/07/09 07:13:10;;;;;;;0.88;0.80;;;19.60;77.10;;;;;;6293467;22;19996;-78
2022/07/09 07:15:36;;;;;;;1.33;1.05;;;19.70;77.10;;;;;;6332678;22;19999;-78
2022/07/09 07:18:02;;;;;;;1.50;1.02;;;19.90;76.80;;;;;;6269173;22;20014;-78
2022/07/09 07:20:28;;;;;;;1.00;0.80;;;20.10;76.30;;;;;;6290523;22;20014;-78
2022/07/09 07:22:54;;;;;;;0.95;0.80;;;20.40;75.80;;;;;;6293179;22;20003;-78
2022/07/09 07:25:20;;;;;;;2.20;1.17;;;20.50;75.30;;;;;;6319837;22;20066;-77
2022/07/09 07:27:46;;;;;;;1.35;1.08;;;20.50;75.20;;;;;;6308387;22;20083;-76
2022/07/09 07:30:12;;;;;;;1.10;0.82;;;20.50;75.40;;;;;;6253287;22;20470;-76
2022/07/09 07:32:39;;;;;;;1.40;1.00;;;20.50;75.70;;;;;;6253607;22;20007;-76
2022/07/09 07:35:04;;;;;;;1.13;0.98;;;20.40;75.90;;;;;;6279129;22;20014;-76
2022/07/09 07:37:31;;;;;;;1.55;0.98;;;20.70;75.90;;;;;;6306696;22;20090;-76
2022/07/09 07:39:57;;;;;;;0.65;0.65;;;20.90;75.50;;;;;;6306088;22;20451;-77
2022/07/09 07:42:24;;;;;;;0.70;0.70;;;21.20;75.00;;;;;;6306030;22;20339;-76
2022/07/09 07:44:49;;;;;;;1.45;1.02;;;21.30;74.80;;;;;;6306150;22;20003;-76
2022/07/09 07:47:15;;;;;;;1.02;0.85;;;21.30;74.50;;;;;;6252903;22;20008;-76
2022/07/09 07:49:41;;;;;;;1.38;0.80;;;21.50;74.40;;;;;;6278754;22;20117;-76
2022/07/09 07:52:07;;;;;;;0.98;0.90;;;21.60;74.30;;;;;;6276891;22;20008;-77
2022/07/09 07:54:33;;;;;;;1.00;0.90;;;21.80;74.30;;;;;;6306482;22;20331;-77
2022/07/09 07:56:59;;;;;;;1.25;0.88;;;21.90;74.00;;;;;;6306121;22;20065;-76
2022/07/09 07:59:25;;;;;;;0.85;0.80;;;22.00;73.70;;;;;;6306172;22;20011;-76
2022/07/09 08:01:51;;;;;;;2.60;1.10;;;22.30;73.50;;;;;;6279082;22;20027;-76
2022/07/09 08:04:17;;;;;;;1.05;0.77;;;22.30;73.20;;;;;;6305951;22;20453;-76
2022/07/09 08:06:43;;;;;;;0.70;0.70;;;22.20;73.20;;;;;;6278365;22;20096;-77
2022/07/09 08:09:09;;;;;;;0.70;0.70;;;22.30;73.30;;;;;;6306045;22;20012;-76
2022/07/09 08:11:35;;;;;;;0.80;0.80;;;22.40;73.40;;;;;;6306312;22;20014;-76
2022/07/09 08:14:01;;;;;;;0.70;0.70;;;22.30;73.60;;;;;;6306584;22;20011;-77
2022/07/09 08:16:27;;;;;;;0.95;0.85;;;22.40;73.60;;;;;;6306533;22;20003;-77
2022/07/09 08:18:53;;;;;;;1.02;0.93;;;22.50;73.40;;;;;;6254109;22;20019;-78
2022/07/09 08:21:18;;;;;;;0.63;0.63;;;22.50;73.30;;;;;;6305801;22;20015;-78
2022/07/09 08:24:04;;;;;;;0.80;0.60;;;22.50;73.30;;;;;;6277352;22;20331;-77
2022/07/09 08:26:29;;;;;;;0.80;0.80;;;22.60;73.40;;;;;;6261731;22;20086;-77
2022/07/09 08:28:56;;;;;;;0.68;0.68;;;22.60;73.40;;;;;;6305754;22;20062;-77
2022/07/09 08:31:22;;;;;;;0.70;0.70;;;22.70;73.30;;;;;;6306783;22;20080;-77
2022/07/09 08:33:49;;;;;;;0.80;0.77;;;22.60;73.20;;;;;;6278706;22;20010;-77
2022/07/09 08:36:15;;;;;;;0.80;0.80;;;22.70;73.30;;;;;;6252921;22;20030;-77
2022/07/09 08:38:41;;;;;;;1.65;0.80;;;22.70;73.30;;;;;;6306487;22;20007;-77
2022/07/09 08:41:07;;;;;;;0.68;0.68;;;22.60;73.40;;;;;;6278923;22;20010;-77
2022/07/09 08:43:34;;;;;;;1.35;1.00;;;22.70;73.50;;;;;;6280072;22;20305;-77
2022/07/09 08:46:00;;;;;;;1.05;0.95;;;22.70;73.40;;;;;;6304883;22;20031;-77
2022/07/09 08:48:26;;;;;;;0.80;0.80;;;22.80;73.40;;;;;;6277599;22;20419;-77
2022/07/09 08:50:52;;;;;;;2.42;1.10;;;22.90;73.30;;;;;;6304212;22;20057;-77
2022/07/09 08:53:19;;;;;;;1.35;0.95;;;23.10;73.00;;;;;;6307108;22;20453;-77
2022/07/09 08:55:45;;;;;;;0.70;0.70;;;23.20;72.60;;;;;;6280631;22;20014;-77
2022/07/09 08:58:13;;;;;;;1.25;0.88;;;23.20;72.40;;;;;;6307436;22;20011;-77
2022/07/09 09:00:41;;;;;;;0.98;0.90;;;23.20;72.30;;;;;;6301253;22;20090;-77
2022/07/09 09:03:07;;;;;;;0.77;0.77;;;23.20;72.40;;;;;;6307096;22;20064;-77
2022/07/09 09:05:33;;;;;;;0.80;0.80;;;23.30;72.30;;;;;;6278434;22;20011;-77
2022/07/09 09:07:59;;;;;;;1.15;0.98;;;23.20;72.30;;;;;;6307159;22;20042;-77
2022/07/09 09:10:26;;;;;;;1.30;1.00;;;23.20;72.40;;;;;;6279760;22;20094;-77
2022/07/09 09:12:58;;;;;;;1.02;0.80;;;23.10;72.60;;;;;;6307104;22;20007;-77
2022/07/09 09:15:25;;;;;;;1.88;1.13;;;22.90;72.90;;;;;;6307589;22;20297;-76
2022/07/09 09:17:51;;;;;;;0.70;0.70;;;22.80;73.00;;;;;;6307335;22;20056;-77
2022/07/09 09:20:17;;;;;;;1.23;1.02;;;22.80;73.10;;;;;;6307633;22;20339;-77
2022/07/09 09:22:50;;;;;;;0.75;0.70;;;22.70;73.90;;;;;;6276841;22;20011;-76
2022/07/09 09:25:18;;;;;;;1.75;0.98;;;22.60;73.50;;;;;;6306872;22;20014;-75
2022/07/09 09:27:54;;;;;;;1.10;1.00;;;22.60;73.70;;;;;;6277015;22;20011;-75
2022/07/09 09:30:20;;;;;;;1.00;0.85;;;22.50;73.60;;;;;;6306873;22;20010;-75
2022/07/09 09:33:02;;;;;;;1.20;1.10;;;22.50;73.60;;;;;;6306932;22;20003;-75
2022/07/09 09:35:32;;;;;;;0.90;0.90;;;22.40;73.60;;;;;;6279795;22;20031;-75
2022/07/09 09:37:58;;;;;;;2.65;1.42;;;22.40;73.50;;;;;;6306934;22;20007;-76
2022/07/09 09:40:25;;;;;;;1.92;1.40;;;22.50;73.40;;;;;;6306809;22;20015;-76
2022/07/09 09:42:51;;;;;;;0.80;0.80;;;22.50;73.10;;;;;;6277684;22;20458;-75
2022/07/09 09:45:17;;;;;;;1.15;1.05;;;22.50;73.00;;;;;;6307093;22;20009;-76
2022/07/09 09:47:47;;;;;;;1.30;1.20;;;22.60;73.00;;;;;;6306613;22;20335;-75
2022/07/09 09:50:17;;;;;;;1.80;1.50;;;22.60;72.90;;;;;;6280132;22;20042;-75
2022/07/09 09:52:47;;;;;;;0.90;0.90;;;22.60;72.60;;;;;;6306988;22;20003;-75
2022/07/09 09:55:14;;;;;;;1.38;1.00;;;22.60;72.60;;;;;;6306515;22;20007;-76
2022/07/09 09:57:41;;;;;;;1.67;1.30;;;22.70;72.50;;;;;;6307353;22;20007;-77
2022/07/09 10:00:08;;;;;;;1.65;1.23;;;22.70;72.40;;;;;;6307159;22;20015;-76
2022/07/09 10:02:35;;;;;;;1.00;0.90;;;22.70;72.50;;;;;;6307486;22;20015;-76
2022/07/09 10:05:01;;;;;;;1.17;1.08;;;22.60;72.50;;;;;;6276133;22;20012;-77
2022/07/09 10:07:29;;;;;;;1.73;1.10;;;22.80;72.40;;;;;;6307177;22;20015;-76
2022/07/09 10:09:57;;;;;;;3.35;1.58;;;22.90;72.20;;;;;;6307007;22;20060;-76
2022/07/09 10:12:32;;;;;;;1.10;1.00;;;23.00;71.60;;;;;;6279577;22;20034;-76
2022/07/09 10:14:58;;;;;;;1.20;1.10;;;22.90;71.70;;;;;;6307298;22;20014;-76
2022/07/09 10:17:25;;;;;;;1.25;1.10;;;22.70;72.00;;;;;;6306838;22;20010;-76
2022/07/09 10:19:57;;;;;;;1.40;1.30;;;22.60;72.40;;;;;;6277016;22;20057;-76
2022/07/09 10:22:35;;;;;;;1.08;1.00;;;22.50;72.60;;;;;;6306832;22;20010;-76
2022/07/09 10:25:01;;;;;;;0.90;0.90;;;22.30;72.90;;;;;;6279580;22;20014;-75
2022/07/09 10:27:27;;;;;;;1.25;1.15;;;22.20;73.00;;;;;;6278838;22;20327;-76
2022/07/09 10:29:57;;;;;;;1.45;1.08;;;22.30;73.10;;;;;;6279375;22;20503;-76
2022/07/09 10:32:29;;;;;;;0.70;0.70;;;22.50;72.90;;;;;;6307082;22;20013;-75
2022/07/09 10:34:59;;;;;;;1.08;0.98;;;22.80;72.20;;;;;;6277643;22;20242;-76
2022/07/09 10:37:44;;;;;;;0.85;0.80;;;23.00;71.10;;;;;;6306679;22;20086;-75
2022/07/09 10:40:12;;;;;;;0.75;0.73;;;23.30;70.20;;;;;;6307372;22;20007;-77
2022/07/09 10:42:39;;;;;;;1.70;0.75;;;23.30;70.50;;;;;;6306499;22;20011;-77
2022/07/09 10:45:25;;;;;;;0.60;0.60;;;23.40;69.40;;;;;;6306620;22;20098;-76
2022/07/09 10:47:54;;;;;;;0.85;0.85;;;23.60;69.40;;;;;;6306668;22;20430;-78
2022/07/09 10:50:20;;;;;;;1.20;1.10;;;23.50;69.20;;;;;;6279660;22;20033;-77
2022/07/09 10:52:46;;;;;;;0.82;0.82;;;23.40;69.00;;;;;;6306644;22;20007;-78
2022/07/09 10:55:14;;;;;;;0.70;0.70;;;23.40;69.30;;;;;;6277454;22;20035;-77
2022/07/09 10:57:40;;;;;;;1.48;0.80;;;23.50;69.20;;;;;;6306394;22;20063;-76
2022/07/09 11:00:10;;;;;;;0.77;0.77;;;23.70;68.80;;;;;;6280528;22;20010;-76
2022/07/09 11:02:35;;;;;;;0.73;0.73;;;23.80;68.40;;;;;;6313626;22;19999;-77
2022/07/09 11:05:01;;;;;;;0.70;0.70;;;23.90;68.00;;;;;;6314488;22;19994;-77
2022/07/09 11:07:28;;;;;;;0.80;0.80;;;23.90;67.80;;;;;;6315883;22;19999;-76
2022/07/09 11:09:55;;;;;;;0.95;0.70;;;23.90;67.70;;;;;;6311302;22;20090;-77
2022/07/09 11:12:22;;;;;;;0.93;0.60;;;24.00;67.60;;;;;;6314802;22;20013;-76
2022/07/09 11:14:50;;;;;;;0.65;0.65;;;24.10;67.20;;;;;;6284583;22;20042;-76
2022/07/09 11:17:18;;;;;;;0.75;0.70;;;24.10;67.30;;;;;;6321902;22;19994;-76
2022/07/09 11:19:45;;;;;;;0.63;0.63;;;24.20;67.10;;;;;;6324030;22;20007;-77
2022/07/09 11:22:10;;;;;;;0.73;0.73;;;24.10;66.80;;;;;;6287934;22;19991;-76
2022/07/09 11:24:37;;;;;;;0.40;0.40;;;24.00;67.00;;;;;;6260460;22;20014;-76
2022/07/09 11:27:04;;;;;;;0.60;0.60;;;23.80;67.50;;;;;;6314472;22;20099;-76
2022/07/09 11:29:31;;;;;;;0.85;0.80;;;23.80;67.70;;;;;;6317602;22;20018;-76
2022/07/09 11:31:57;;;;;;;0.75;0.60;;;23.90;67.30;;;;;;6317383;22;20007;-76
2022/07/09 11:34:23;;;;;;;0.75;0.60;;;24.00;67.10;;;;;;6283722;22;20019;-76
2022/07/09 11:36:54;;;;;;;0.75;0.70;;;24.00;67.00;;;;;;6315385;22;19995;-76
2022/07/09 11:39:32;;;;;;;0.60;0.60;;;23.90;66.60;;;;;;6289427;22;20011;-76
2022/07/09 11:41:59;;;;;;;0.60;0.60;;;23.90;66.50;;;;;;6318348;22;20067;-76
2022/07/09 11:44:29;;;;;;;0.50;0.50;;;23.80;66.80;;;;;;6290697;22;20018;-76
2022/07/09 11:47:08;;;;;;;0.65;0.57;;;23.70;66.80;;;;;;6316721;22;20007;-73
2022/07/09 11:49:38;;;;;;;0.57;0.55;;;23.60;66.90;;;;;;6288058;22;20011;-76
2022/07/09 11:52:18;;;;;;;0.40;0.40;;;23.60;67.00;;;;;;6316534;22;20003;-76
2022/07/09 11:55:00;;;;;;;1.43;0.80;;;23.80;66.80;;;;;;6317789;22;19988;-76
2022/07/09 11:57:27;;;;;;;1.55;0.50;;;23.80;66.20;;;;;;6287183;22;20148;-76
2022/07/09 11:59:53;;;;;;;0.40;0.40;;;23.90;66.00;;;;;;6290463;22;20017;-76
2022/07/09 12:02:30;;;;;;;0.68;0.50;;;24.00;65.70;;;;;;6283254;22;20061;-76
2022/07/09 12:04:58;;;;;;;0.40;0.40;;;23.90;65.70;;;;;;6313832;22;20007;-73
2022/07/09 12:07:24;;;;;;;0.45;0.45;;;23.80;66.00;;;;;;6314284;22;20003;-76
2022/07/09 12:09:58;;;;;;;0.30;0.30;;;23.70;66.30;;;;;;6322177;22;20011;-76
2022/07/09 12:12:25;;;;;;;1.08;0.57;;;23.70;66.20;;;;;;6289055;22;19992;-76
2022/07/09 12:14:50;;;;;;;0.40;0.40;;;23.80;65.90;;;;;;6289246;22;20030;-76
2022/07/09 12:17:22;;;;;;;0.88;0.50;;;23.70;65.70;;;;;;6318466;22;20007;-77
2022/07/09 12:19:48;;;;;;;0.82;0.50;;;23.70;65.50;;;;;;6318531;22;20017;-76
2022/07/09 12:22:14;;;;;;;0.95;0.63;;;23.60;65.50;;;;;;6292609;22;20015;-76
2022/07/09 12:24:42;;;;;;;0.65;0.50;;;23.60;65.50;;;;;;6291132;22;20397;-75
2022/07/09 12:27:08;;;;;;;0.82;0.60;;;23.50;65.30;;;;;;6265099;22;20003;-75
2022/07/09 12:29:34;;;;;;;1.17;0.88;;;23.50;65.40;;;;;;6320736;22;20019;-76
2022/07/09 12:32:00;;;;;;;0.82;0.60;;;23.30;64.90;;;;;;6315845;22;20063;-76
2022/07/09 12:34:26;;;;;;;0.82;0.60;;;23.20;64.90;;;;;;6289789;22;20347;-76
2022/07/09 12:36:52;;;;;;;0.60;0.60;;;23.30;64.90;;;;;;6314674;22;20003;-76
2022/07/09 12:39:17;;;;;;;0.70;0.70;;;23.30;64.80;;;;;;6281359;22;20316;-76
2022/07/09 12:41:43;;;;;;;1.02;0.60;;;23.40;64.50;;;;;;6312872;22;20007;-76
2022/07/09 12:44:09;;;;;;;0.77;0.60;;;23.50;64.30;;;;;;6283645;22;20035;-76
2022/07/09 12:46:36;;;;;;;0.57;0.57;;;23.60;64.10;;;;;;6317405;22;20011;-76
2022/07/09 12:49:01;;;;;;;0.55;0.55;;;23.60;63.70;;;;;;6279689;22;20059;-73